Time;durP1;ratioP1;P1;durP2;ratioP2;P2;SDS_P1;SDS_P2;PMS_P1;PMS_P2;Temp;Humidity;BMP_temperature;BMP_pressure;BME280_temperature;BME280_humidity;BME280_pressure;Samples;Min_cycle;Max_cycle;Signal;HPM_P1;HPM_P2
2022/05/15 00:02:07;;;;;;;;;0.50;0.50;23.90;99.90;;;;;;4973745;28;9019;-67
2022/05/15 00:04:38;;;;;;;;;1.00;1.00;23.90;99.90;;;;;;4974250;28;8866;-65
2022/05/15 00:07:08;;;;;;;;;0.75;0.25;24.00;99.90;;;;;;4976746;28;8869;-67
2022/05/15 00:09:41;;;;;;;;;1.00;1.00;24.00;99.90;;;;;;4972837;28;8874;-68
2022/05/15 00:12:11;;;;;;;;;5.25;5.25;24.00;99.90;;;;;;4965773;28;8893;-66
2022/05/15 00:14:45;;;;;;;;;1.50;1.50;24.00;99.90;;;;;;4989012;28;8976;-65
2022/05/15 00:17:17;;;;;;;;;1.00;1.00;24.00;99.90;;;;;;4994066;28;9004;-68
2022/05/15 00:19:48;;;;;;;;;2.00;0.00;24.00;99.90;;;;;;4992087;28;8854;-68
2022/05/15 00:22:19;;;;;;;;;1.00;1.00;24.00;99.90;;;;;;4995390;28;8952;-66
2022/05/15 00:24:51;;;;;;;;;1.00;0.00;24.00;99.90;;;;;;4976736;28;9044;-66
2022/05/15 00:27:22;;;;;;;;;1.25;1.25;23.90;99.90;;;;;;4967413;28;8874;-66
2022/05/15 00:29:52;;;;;;;;;1.75;1.75;23.90;99.90;;;;;;4977932;28;8846;-66
2022/05/15 00:32:21;;;;;;;;;1.75;1.75;23.80;99.90;;;;;;4988833;28;8962;-65
2022/05/15 00:34:52;;;;;;;;;1.00;1.00;23.80;99.90;;;;;;4974211;28;8866;-65
2022/05/15 00:37:23;;;;;;;;;0.50;0.50;23.70;99.90;;;;;;4990130;28;8869;-66
2022/05/15 00:39:54;;;;;;;;;3.00;2.00;23.60;99.90;;;;;;4994883;28;9030;-65
2022/05/15 00:42:25;;;;;;;;;1.00;1.00;23.60;99.90;;;;;;4984725;28;8869;-65
2022/05/15 00:44:56;;;;;;;;;2.25;2.25;23.60;99.90;;;;;;4975945;28;9659;-66
2022/05/15 00:47:27;;;;;;;;;1.00;1.00;23.40;99.90;;;;;;4974708;28;9322;-66
2022/05/15 00:50:01;;;;;;;;;0.00;0.00;23.40;99.90;;;;;;4973995;28;8850;-65
2022/05/15 00:52:39;;;;;;;;;1.25;1.25;23.30;99.90;;;;;;4978428;28;8873;-67
2022/05/15 00:55:15;;;;;;;;;1.50;1.25;23.30;99.90;;;;;;4994331;28;8995;-66
2022/05/15 00:57:52;;;;;;;;;2.25;1.50;23.20;99.90;;;;;;4987007;28;8854;-66
2022/05/15 01:00:28;;;;;;;;;1.00;1.00;23.10;99.90;;;;;;4974785;28;8861;-67
2022/05/15 01:03:14;;;;;;;;;1.00;1.00;23.10;99.90;;;;;;4991271;28;9367;-67
2022/05/15 01:05:51;;;;;;;;;1.00;1.00;22.90;99.90;;;;;;4993761;28;8843;-66
2022/05/15 01:08:28;;;;;;;;;1.00;1.00;23.00;99.90;;;;;;4980473;28;8859;-67
2022/05/15 01:11:08;;;;;;;;;1.00;1.00;22.90;99.90;;;;;;4979904;28;8866;-67
2022/05/15 01:13:42;;;;;;;;;0.50;0.50;22.80;99.90;;;;;;4974697;28;8873;-66
2022/05/15 01:16:21;;;;;;;;;1.00;1.00;22.70;99.90;;;;;;4996240;28;8877;-67
2022/05/15 01:18:58;;;;;;;;;1.50;1.50;22.60;99.90;;;;;;4989941;28;8878;-68
2022/05/15 01:21:34;;;;;;;;;1.00;1.00;22.70;99.90;;;;;;4956572;28;8893;-69
2022/05/15 01:24:07;;;;;;;;;2.25;2.25;22.70;99.90;;;;;;4990635;28;8803;-64
2022/05/15 01:26:41;;;;;;;;;2.00;2.00;22.60;99.90;;;;;;4976149;28;8842;-69
2022/05/15 01:29:27;;;;;;;;;3.25;2.50;22.60;99.90;;;;;;4973797;28;8850;-68
2022/05/15 01:31:59;;;;;;;;;2.00;2.00;22.40;99.90;;;;;;4974090;28;8985;-68
2022/05/15 01:34:33;;;;;;;;;2.00;1.75;22.40;99.90;;;;;;4991292;28;8885;-66
2022/05/15 01:37:03;;;;;;;;;2.50;1.00;22.50;99.90;;;;;;4978858;28;8870;-68
2022/05/15 01:39:37;;;;;;;;;2.75;2.75;22.40;99.90;;;;;;4980421;28;8883;-69
2022/05/15 01:42:08;;;;;;;;;1.25;1.25;22.30;99.90;;;;;;4951543;28;8996;-69
2022/05/15 01:44:41;;;;;;;;;1.00;1.00;22.30;99.90;;;;;;4975337;28;8870;-69
2022/05/15 01:47:11;;;;;;;;;2.00;2.00;22.30;99.90;;;;;;4988080;28;8873;-69
2022/05/15 01:49:42;;;;;;;;;1.75;1.75;22.20;99.90;;;;;;4975556;28;8855;-69
2022/05/15 01:52:13;;;;;;;;;2.00;2.00;22.10;99.90;;;;;;4976966;28;8889;-69
2022/05/15 01:54:45;;;;;;;;;3.75;3.75;22.10;99.90;;;;;;4994042;28;9083;-68
2022/05/15 01:57:16;;;;;;;;;3.25;2.50;22.10;99.90;;;;;;4987434;28;8842;-70
2022/05/15 01:59:47;;;;;;;;;1.75;1.75;22.00;99.90;;;;;;4990132;28;8851;-68
2022/05/15 02:02:19;;;;;;;;;1.75;1.75;22.10;99.90;;;;;;4988308;28;8878;-69
2022/05/15 02:04:52;;;;;;;;;1.00;1.00;22.00;99.90;;;;;;4973073;28;9654;-69
2022/05/15 02:07:22;;;;;;;;;3.00;3.00;22.00;99.90;;;;;;4976816;28;8893;-69
2022/05/15 02:09:55;;;;;;;;;4.00;3.33;21.90;99.90;;;;;;4990431;28;9035;-69
2022/05/15 02:12:26;;;;;;;;;2.67;2.67;21.90;99.90;;;;;;4994853;28;8948;-68
2022/05/15 02:14:57;;;;;;;;;2.25;2.25;21.80;99.90;;;;;;4973718;28;8942;-67
2022/05/15 02:17:28;;;;;;;;;1.00;1.00;21.80;99.90;;;;;;4983564;28;8893;-69
2022/05/15 02:20:00;;;;;;;;;2.67;2.67;21.80;99.90;;;;;;4973491;28;9735;-68
2022/05/15 02:22:32;;;;;;;;;4.00;2.50;21.70;99.90;;;;;;4977213;28;8947;-68
2022/05/15 02:25:02;;;;;;;;;3.50;3.00;21.60;99.90;;;;;;4992599;28;8862;-69
2022/05/15 02:27:39;;;;;;;;;3.00;3.00;21.60;99.90;;;;;;4977209;28;8842;-68
2022/05/15 02:30:11;;;;;;;;;2.00;2.00;21.50;99.90;;;;;;4990379;28;8969;-70
2022/05/15 02:32:43;;;;;;;;;2.50;2.50;21.40;99.90;;;;;;4978792;28;8870;-68
2022/05/15 02:35:14;;;;;;;;;4.00;4.00;21.40;99.90;;;;;;4976067;28;8831;-68
2022/05/15 02:37:47;;;;;;;;;1.00;1.00;21.40;99.90;;;;;;4985406;28;8967;-67
2022/05/15 02:40:22;;;;;;;;;1.33;1.33;21.40;99.90;;;;;;4971641;28;8871;-69
2022/05/15 02:42:55;;;;;;;;;4.00;2.75;21.40;99.90;;;;;;4976708;28;9077;-69
2022/05/15 02:45:28;;;;;;;;;1.50;1.50;21.40;99.90;;;;;;4972322;28;8831;-70
2022/05/15 02:47:59;;;;;;;;;2.67;2.67;21.30;99.90;;;;;;4976070;28;8870;-69
2022/05/15 02:53:21;;;;;;;;;1.75;1.75;21.20;99.90;;;;;;4981270;28;9007;-69
2022/05/15 02:55:51;;;;;;;;;2.00;2.00;21.10;99.90;;;;;;4980638;28;8880;-69
2022/05/15 02:58:23;;;;;;;;;3.00;3.00;21.10;99.90;;;;;;4974007;28;9090;-69
2022/05/15 03:00:54;;;;;;;;;3.33;2.00;21.10;99.90;;;;;;4977987;28;9117;-69
2022/05/15 03:03:26;;;;;;;;;2.67;2.67;21.00;99.90;;;;;;4977992;28;9250;-68
2022/05/15 03:05:58;;;;;;;;;2.33;2.33;21.00;99.90;;;;;;4974394;28;9292;-69
2022/05/15 03:08:34;;;;;;;;;2.00;2.00;20.90;99.90;;;;;;4981070;28;9303;-69
2022/05/15 03:11:07;;;;;;;;;2.00;2.00;20.90;99.90;;;;;;4974034;28;9170;-69
2022/05/15 03:13:39;;;;;;;;;2.00;2.00;20.90;99.90;;;;;;4990669;28;9204;-67
2022/05/15 03:16:15;;;;;;;;;3.00;1.00;20.90;99.90;;;;;;4993257;28;9142;-69
2022/05/15 03:18:51;;;;;;;;;2.00;2.00;20.90;99.90;;;;;;4989712;28;9256;-68
2022/05/15 03:21:31;;;;;;;;;2.00;2.00;20.80;99.90;;;;;;4977888;28;9180;-69
2022/05/15 03:24:08;;;;;;;;;2.67;2.00;20.70;99.90;;;;;;4988736;28;9418;-70
2022/05/15 03:26:41;;;;;;;;;2.67;2.67;20.70;99.90;;;;;;4984348;28;9183;-70
2022/05/15 03:29:14;;;;;;;;;2.00;2.00;20.60;99.90;;;;;;4978851;28;9284;-68
2022/05/15 03:31:46;;;;;;;;;1.00;1.00;20.60;99.90;;;;;;4970915;28;9493;-69
2022/05/15 03:34:17;;;;;;;;;5.00;3.00;20.50;99.90;;;;;;4980199;28;9395;-68
2022/05/15 03:36:53;;;;;;;;;4.00;2.00;20.50;99.90;;;;;;4994015;28;9260;-70
2022/05/15 03:39:24;;;;;;;;;2.67;2.67;20.50;99.90;;;;;;5000766;28;9962;-67
2022/05/15 03:41:56;;;;;;;;;3.00;3.00;20.50;99.90;;;;;;4984081;28;9442;-70
2022/05/15 03:44:27;;;;;;;;;1.00;1.00;20.40;99.90;;;;;;4973372;28;9561;-66
2022/05/15 03:46:59;;;;;;;;;2.67;2.67;20.30;99.90;;;;;;4984271;28;9364;-70
2022/05/15 03:49:30;;;;;;;;;1.00;1.00;20.30;99.90;;;;;;4981437;28;9458;-70
2022/05/15 03:52:04;;;;;;;;;2.33;2.33;20.30;99.90;;;;;;4980448;28;9331;-71
2022/05/15 03:54:36;;;;;;;;;3.33;2.00;20.20;99.90;;;;;;4979372;28;9431;-68
2022/05/15 03:57:09;;;;;;;;;2.00;2.00;20.10;99.90;;;;;;4980718;28;10054;-69
2022/05/15 03:59:41;;;;;;;;;2.67;2.67;20.00;99.90;;;;;;4991265;28;9655;-69
2022/05/15 04:02:12;;;;;;;;;2.33;2.33;20.00;99.90;;;;;;4995683;28;9619;-68
2022/05/15 04:04:44;;;;;;;;;3.33;3.00;19.90;99.90;;;;;;4977268;28;9567;-69
2022/05/15 04:07:16;;;;;;;;;3.00;3.00;19.90;99.90;;;;;;4977227;28;9578;-68
2022/05/15 04:09:51;;;;;;;;;2.67;2.67;19.90;99.90;;;;;;4995392;28;9556;-68
2022/05/15 04:12:22;;;;;;;;;2.50;2.50;19.90;99.90;;;;;;4999751;28;9478;-69
2022/05/15 04:14:52;;;;;;;;;4.25;2.50;19.80;99.90;;;;;;4991215;28;9563;-68
2022/05/15 04:17:22;;;;;;;;;1.00;1.00;19.80;99.90;;;;;;4994937;28;9611;-71
2022/05/15 04:19:53;;;;;;;;;5.25;5.25;19.80;99.90;;;;;;4982824;28;9485;-69
2022/05/15 04:22:24;;;;;;;;;4.00;4.00;19.60;99.90;;;;;;4998355;28;9832;-68
2022/05/15 04:24:55;;;;;;;;;4.00;3.75;19.60;99.90;;;;;;4996044;28;12139;-69
2022/05/15 04:27:28;;;;;;;;;3.00;3.00;19.60;99.90;;;;;;4987933;28;9741;-69
2022/05/15 04:29:59;;;;;;;;;3.00;3.00;19.60;99.90;;;;;;4982118;28;9834;-69
2022/05/15 04:32:30;;;;;;;;;2.75;2.75;19.60;99.90;;;;;;5000968;28;9797;-69
2022/05/15 04:35:02;;;;;;;;;2.00;2.00;19.50;99.90;;;;;;4998314;28;10798;-67
2022/05/15 04:37:33;;;;;;;;;4.33;2.67;19.50;99.90;;;;;;5000247;28;9739;-68
2022/05/15 04:40:06;;;;;;;;;2.00;2.00;19.50;99.90;;;;;;4972668;28;9699;-66
2022/05/15 04:42:39;;;;;;;;;3.00;3.00;19.40;99.90;;;;;;4992853;28;9970;-69
2022/05/15 04:45:12;;;;;;;;;2.50;2.50;19.40;99.90;;;;;;4997585;28;9601;-68
2022/05/15 04:47:47;;;;;;;;;2.25;2.25;19.30;99.90;;;;;;4982159;28;10961;-68
2022/05/15 04:50:19;;;;;;;;;2.25;2.25;19.30;99.90;;;;;;4982481;28;9776;-68
2022/05/15 04:52:50;;;;;;;;;2.25;2.25;19.30;99.90;;;;;;4991959;28;10425;-66
2022/05/15 04:55:21;;;;;;;;;2.00;2.00;19.20;99.90;;;;;;4982498;28;9782;-68
2022/05/15 04:57:52;;;;;;;;;2.75;2.75;19.20;99.90;;;;;;4994437;28;9796;-67
2022/05/15 05:00:22;;;;;;;;;3.50;3.50;19.20;99.90;;;;;;4998394;28;10204;-66
2022/05/15 05:02:53;;;;;;;;;2.00;2.00;19.20;99.90;;;;;;4996945;28;9903;-66
2022/05/15 05:05:24;;;;;;;;;2.50;2.25;19.10;99.90;;;;;;4989777;28;10105;-67
2022/05/15 05:07:55;;;;;;;;;2.00;2.00;19.10;99.90;;;;;;4984351;28;9851;-66
2022/05/15 05:10:26;;;;;;;;;1.75;1.75;19.10;99.90;;;;;;4996474;28;10685;-66
2022/05/15 05:12:56;;;;;;;;;3.25;3.25;19.00;99.90;;;;;;4998231;28;9889;-66
2022/05/15 05:15:27;;;;;;;;;5.50;4.50;19.00;99.90;;;;;;4997899;28;10242;-66
2022/05/15 05:17:59;;;;;;;;;4.25;4.25;19.00;99.90;;;;;;4996326;28;10105;-66
2022/05/15 05:20:30;;;;;;;;;4.50;4.50;19.00;99.90;;;;;;4996625;28;10280;-65
2022/05/15 05:23:00;;;;;;;;;5.00;4.00;19.00;99.90;;;;;;4997326;28;10257;-66
2022/05/15 05:25:30;;;;;;;;;5.50;4.00;18.90;99.90;;;;;;4987620;28;10707;-66
2022/05/15 05:28:01;;;;;;;;;4.00;4.00;18.90;99.90;;;;;;5002010;28;10392;-66
2022/05/15 05:30:32;;;;;;;;;4.00;4.00;18.80;99.90;;;;;;4996797;28;10506;-66
2022/05/15 05:33:03;;;;;;;;;6.75;5.75;18.80;99.90;;;;;;4999814;28;10470;-67
2022/05/15 05:35:36;;;;;;;;;6.00;6.00;18.80;99.90;;;;;;4992270;28;10276;-65
2022/05/15 05:38:07;;;;;;;;;8.50;8.50;18.80;99.90;;;;;;4993578;28;10449;-66
2022/05/15 05:40:38;;;;;;;;;7.25;6.00;18.70;99.90;;;;;;4999732;28;10475;-67
2022/05/15 05:43:11;;;;;;;;;10.75;9.25;18.70;99.90;;;;;;4996619;28;10561;-67
2022/05/15 05:45:42;;;;;;;;;13.00;10.00;18.70;99.90;;;;;;4994691;28;10572;-65
2022/05/15 05:48:13;;;;;;;;;12.00;12.00;18.60;99.90;;;;;;4998601;28;10597;-67
2022/05/15 05:50:44;;;;;;;;;15.50;14.25;18.70;99.90;;;;;;4992604;28;11321;-67
2022/05/15 05:53:15;;;;;;;;;12.75;12.75;18.70;99.90;;;;;;4995809;28;10680;-67
2022/05/15 05:55:46;;;;;;;;;12.25;12.25;18.70;99.90;;;;;;4993139;28;10324;-65
2022/05/15 05:58:16;;;;;;;;;13.50;13.50;18.60;99.90;;;;;;4991812;28;11529;-67
2022/05/15 06:00:46;;;;;;;;;16.75;16.25;18.60;99.90;;;;;;4993418;28;10854;-66
2022/05/15 06:06:08;;;;;;;;;16.00;14.25;18.60;99.90;;;;;;4997018;28;10922;-67
2022/05/15 06:08:40;;;;;;;;;14.50;13.25;18.50;99.90;;;;;;4995149;28;10888;-67
2022/05/15 06:11:11;;;;;;;;;16.00;14.25;18.50;99.90;;;;;;4998211;28;10700;-65
2022/05/15 06:13:42;;;;;;;;;9.75;9.75;18.50;99.90;;;;;;4997154;28;11128;-66
2022/05/15 06:16:13;;;;;;;;;9.50;9.50;18.50;99.90;;;;;;4981667;28;10654;-66
2022/05/15 06:18:44;;;;;;;;;5.75;3.00;18.40;99.90;;;;;;5001607;28;10938;-66
2022/05/15 06:21:16;;;;;;;;;2.25;2.25;18.40;99.90;;;;;;4997765;28;11369;-66
2022/05/15 06:23:47;;;;;;;;;2.25;2.25;18.40;99.90;;;;;;4993101;28;10342;-66
2022/05/15 06:26:20;;;;;;;;;4.00;3.00;18.40;99.90;;;;;;4987413;28;10105;-67
2022/05/15 06:28:51;;;;;;;;;4.00;4.00;18.40;99.90;;;;;;4976539;28;10179;-66
2022/05/15 06:31:22;;;;;;;;;3.25;1.75;18.30;99.90;;;;;;4978737;28;10132;-65
2022/05/15 06:33:53;;;;;;;;;2.00;1.50;18.30;99.90;;;;;;4995711;28;10420;-65
2022/05/15 06:36:24;;;;;;;;;4.00;4.00;18.30;99.90;;;;;;4999826;28;10208;-65
2022/05/15 06:38:55;;;;;;;;;3.75;2.75;18.30;99.90;;;;;;4978748;28;10211;-66
2022/05/15 06:41:25;;;;;;;;;3.25;3.25;18.30;99.90;;;;;;4995094;28;10088;-66
2022/05/15 06:43:57;;;;;;;;;3.75;2.25;18.20;99.90;;;;;;4995181;28;10331;-66
2022/05/15 06:46:30;;;;;;;;;2.25;2.25;18.20;99.90;;;;;;4990606;28;10255;-66
2022/05/15 06:49:01;;;;;;;;;6.25;4.00;18.10;99.90;;;;;;4978085;28;11011;-66
2022/05/15 06:51:33;;;;;;;;;2.25;2.00;18.20;99.90;;;;;;4991214;28;10189;-65
2022/05/15 06:54:05;;;;;;;;;2.00;2.00;18.10;99.90;;;;;;4982200;28;10358;-64
2022/05/15 06:59:24;;;;;;;;;2.00;2.00;18.10;99.90;;;;;;4997685;28;10187;-65
2022/05/15 07:02:00;;;;;;;;;3.50;3.50;18.10;99.90;;;;;;4997014;28;10235;-65
2022/05/15 07:04:32;;;;;;;;;4.00;2.25;18.00;99.90;;;;;;4996189;28;10278;-65
2022/05/15 07:07:04;;;;;;;;;4.75;3.75;18.00;99.90;;;;;;4975771;28;10197;-66
2022/05/15 07:09:36;;;;;;;;;5.00;4.25;18.00;99.90;;;;;;4966732;28;10722;-65
2022/05/15 07:12:08;;;;;;;;;4.00;4.00;18.00;99.90;;;;;;4993107;28;10399;-65
2022/05/15 07:14:40;;;;;;;;;2.50;2.50;18.00;99.90;;;;;;4996011;28;10422;-66
2022/05/15 07:17:13;;;;;;;;;1.75;1.75;18.00;99.90;;;;;;5002519;28;10284;-65
2022/05/15 07:19:44;;;;;;;;;2.00;2.00;17.90;99.90;;;;;;4991482;28;10524;-65
2022/05/15 07:22:20;;;;;;;;;4.00;4.00;17.90;99.90;;;;;;4983641;28;10358;-64
2022/05/15 07:24:51;;;;;;;;;3.00;3.00;17.90;99.90;;;;;;5000851;28;10790;-64
2022/05/15 07:27:24;;;;;;;;;3.50;2.00;17.80;99.90;;;;;;4995517;28;11381;-65
2022/05/15 07:29:56;;;;;;;;;3.00;3.00;17.90;99.90;;;;;;4983276;28;10880;-65
2022/05/15 07:32:27;;;;;;;;;1.00;1.00;17.80;99.90;;;;;;4997264;28;11088;-65
2022/05/15 07:34:58;;;;;;;;;3.50;2.00;17.80;99.90;;;;;;4997070;28;11007;-65
2022/05/15 07:37:30;;;;;;;;;3.25;3.25;17.80;99.90;;;;;;4996332;28;11591;-66
2022/05/15 07:40:07;;;;;;;;;10.25;10.25;17.80;99.90;;;;;;5001859;28;11477;-65
2022/05/15 07:42:39;;;;;;;;;9.75;9.75;17.70;99.90;;;;;;4993831;28;11410;-65
2022/05/15 07:45:12;;;;;;;;;13.25;13.25;17.70;99.90;;;;;;5002637;28;11431;-66
2022/05/15 07:47:43;;;;;;;;;18.50;17.75;17.70;99.90;;;;;;4984435;28;12209;-66
2022/05/15 07:50:14;;;;;;;;;21.25;21.25;17.70;99.90;;;;;;4992814;28;11562;-65
2022/05/15 07:52:47;;;;;;;;;22.25;22.25;17.60;99.90;;;;;;5000419;28;11571;-64
2022/05/15 07:55:20;;;;;;;;;23.00;23.00;17.60;99.90;;;;;;4975524;28;11585;-64
2022/05/15 07:57:50;;;;;;;;;23.00;23.00;17.60;99.90;;;;;;4976715;28;11576;-65
2022/05/15 08:00:20;;;;;;;;;26.00;26.00;17.60;99.90;;;;;;4976670;28;11587;-65
2022/05/15 08:03:10;;;;;;;;;27.67;26.33;17.60;99.90;;;;;;4992159;28;11666;-65
2022/05/15 08:08:29;;;;;;;;;31.00;30.25;17.50;99.90;;;;;;4998283;28;11591;-66
2022/05/15 08:11:02;;;;;;;;;32.00;30.75;17.50;99.90;;;;;;4987824;28;11575;-66
2022/05/15 08:13:33;;;;;;;;;32.50;31.50;17.40;99.90;;;;;;4990447;28;11556;-64
2022/05/15 08:16:04;;;;;;;;;30.50;29.50;17.40;99.90;;;;;;4996376;28;11567;-64
2022/05/15 08:24:14;;;;;;;;;41.67;36.33;17.30;99.90;;;;;;5000988;28;11540;-66
2022/05/15 08:26:45;;;;;;;;;38.75;35.25;17.30;99.90;;;;;;4993577;28;11502;-64
2022/05/15 08:29:18;;;;;;;;;43.25;36.75;17.30;99.90;;;;;;4992436;28;11670;-65
2022/05/15 08:31:49;;;;;;;;;42.00;37.00;17.30;99.90;;;;;;4979456;28;11564;-65
2022/05/15 08:34:21;;;;;;;;;45.25;38.75;17.30;99.90;;;;;;4977960;28;11547;-65
2022/05/15 08:36:53;;;;;;;;;43.00;37.75;17.20;99.90;;;;;;5000331;28;11628;-65
2022/05/15 08:39:24;;;;;;;;;47.00;40.75;17.20;99.90;;;;;;5003391;28;11584;-65
2022/05/15 08:42:32;;;;;;;;;46.50;40.00;17.20;99.90;;;;;;4975399;28;11563;-64
2022/05/15 08:45:03;;;;;;;;;48.50;41.25;17.20;99.90;;;;;;4976952;28;11578;-65
2022/05/15 08:47:42;;;;;;;;;50.75;43.25;17.20;99.90;;;;;;4982387;28;11569;-65
2022/05/15 08:50:18;;;;;;;;;55.00;46.25;17.10;99.90;;;;;;4995293;28;11605;-65
2022/05/15 08:53:15;;;;;;;;;54.25;45.50;17.20;99.90;;;;;;4981539;28;11654;-65
2022/05/15 08:55:57;;;;;;;;;51.25;43.75;17.10;99.90;;;;;;4997968;28;11547;-65
2022/05/15 08:58:52;;;;;;;;;53.25;45.00;17.10;99.90;;;;;;4979784;28;11562;-64
2022/05/15 09:01:27;;;;;;;;;50.00;42.75;17.10;99.90;;;;;;4979959;28;11721;-64
2022/05/15 09:03:58;;;;;;;;;43.75;38.50;17.10;99.90;;;;;;4958871;28;12411;-64
2022/05/15 09:06:51;;;;;;;;;39.00;34.00;17.10;99.90;;;;;;4991025;28;12347;-65
2022/05/15 09:09:52;;;;;;;;;24.00;22.75;17.00;99.90;;;;;;4990515;28;11586;-64
2022/05/15 09:12:28;;;;;;;;;14.25;14.25;17.00;99.90;;;;;;4987701;28;11608;-64
2022/05/15 09:15:13;;;;;;;;;15.75;15.50;17.00;99.90;;;;;;4990515;28;11535;-65
2022/05/15 09:17:58;;;;;;;;;12.25;12.25;17.00;99.90;;;;;;4977809;28;11538;-64
2022/05/15 09:21:08;;;;;;;;;18.00;17.50;17.00;99.90;;;;;;4982555;28;11562;-64
2022/05/15 09:23:48;;;;;;;;;12.00;12.00;16.90;99.90;;;;;;4980468;28;11705;-65
2022/05/15 09:26:22;;;;;;;;;14.00;14.00;16.90;99.90;;;;;;4994644;28;12274;-64
2022/05/15 09:28:55;;;;;;;;;13.75;13.75;16.90;99.90;;;;;;4980548;28;11567;-65
2022/05/15 09:31:28;;;;;;;;;17.25;14.25;17.00;99.90;;;;;;4993813;28;11570;-64
2022/05/15 09:34:08;;;;;;;;;13.00;13.00;16.90;99.90;;;;;;4972740;28;11579;-64
2022/05/15 09:36:45;;;;;;;;;11.25;10.75;16.90;99.90;;;;;;4991485;28;12395;-64
2022/05/15 09:39:44;;;;;;;;;8.75;7.75;16.90;99.90;;;;;;4959715;28;11613;-64
2022/05/15 09:45:28;;;;;;;;;3.00;3.00;16.80;99.90;;;;;;4991176;28;11555;-64
2022/05/15 09:48:05;;;;;;;;;4.00;4.00;16.90;99.90;;;;;;4980973;28;11910;-64
2022/05/15 09:50:47;;;;;;;;;2.00;2.00;16.80;99.90;;;;;;4996050;28;11591;-64
2022/05/15 09:53:38;;;;;;;;;3.25;3.25;16.80;99.90;;;;;;4986272;28;10970;-64
2022/05/15 09:56:25;;;;;;;;;2.00;2.00;16.80;99.90;;;;;;4987815;28;10990;-64
2022/05/15 09:59:09;;;;;;;;;1.50;1.50;16.80;99.90;;;;;;4983553;28;10799;-65
2022/05/15 10:01:57;;;;;;;;;3.75;2.75;16.80;99.90;;;;;;4991826;28;10772;-64
2022/05/15 10:04:40;;;;;;;;;2.25;2.25;16.80;99.90;;;;;;4988457;28;10673;-63
2022/05/15 10:07:27;;;;;;;;;2.25;2.25;16.60;99.90;;;;;;4991689;28;10502;-65
2022/05/15 10:10:34;;;;;;;;;4.00;2.00;16.70;99.90;;;;;;4980249;28;10649;-64
2022/05/15 10:13:13;;;;;;;;;3.75;2.25;16.70;99.90;;;;;;4991712;28;10589;-65
2022/05/15 10:15:50;;;;;;;;;4.00;2.00;16.80;99.90;;;;;;4991646;28;10646;-64
2022/05/15 10:18:27;;;;;;;;;1.00;1.00;16.70;99.90;;;;;;4995076;28;10700;-64
2022/05/15 10:21:00;;;;;;;;;2.00;2.00;16.70;99.90;;;;;;4987816;28;10722;-64
2022/05/15 10:23:50;;;;;;;;;2.00;2.00;16.70;99.90;;;;;;4989360;28;10637;-65
2022/05/15 10:26:32;;;;;;;;;1.00;1.00;16.70;99.90;;;;;;4991980;28;10689;-65
2022/05/15 10:29:10;;;;;;;;;3.00;3.00;16.70;99.90;;;;;;4976472;28;10479;-65
2022/05/15 10:31:56;;;;;;;;;1.00;1.00;16.60;99.90;;;;;;4977290;28;10542;-63
2022/05/15 10:34:29;;;;;;;;;0.25;0.25;16.70;99.90;;;;;;4995886;28;10530;-64
2022/05/15 10:37:06;;;;;;;;;2.00;2.00;16.60;99.90;;;;;;4993819;28;11331;-64
2022/05/15 10:40:11;;;;;;;;;2.00;2.00;16.60;99.90;;;;;;4991982;28;11303;-64
2022/05/15 10:42:49;;;;;;;;;3.00;2.00;16.60;99.90;;;;;;4972173;28;11520;-64
2022/05/15 10:45:50;;;;;;;;;1.50;1.50;16.60;99.90;;;;;;4986217;28;10476;-63
2022/05/15 10:48:49;;;;;;;;;2.25;2.25;16.60;99.90;;;;;;4997571;28;10820;-64
2022/05/15 10:51:37;;;;;;;;;1.00;1.00;16.50;99.90;;;;;;4996987;28;10566;-66
2022/05/15 10:57:32;;;;;;;;;2.25;1.00;16.40;99.90;;;;;;4957712;28;10583;-65
2022/05/15 11:00:19;;;;;;;;;0.00;0.00;16.50;99.90;;;;;;5005175;28;10640;-66
2022/05/15 11:03:12;;;;;;;;;0.50;0.50;16.50;99.90;;;;;;4964428;28;10834;-65
2022/05/15 11:05:43;;;;;;;;;0.00;0.00;16.40;99.90;;;;;;4991628;28;10535;-64
2022/05/15 11:08:35;;;;;;;;;0.00;0.00;16.40;99.90;;;;;;4999467;28;10535;-64
2022/05/15 11:11:31;;;;;;;;;0.00;0.00;16.40;99.90;;;;;;4974706;28;10540;-65
2022/05/15 11:14:08;;;;;;;;;0.00;0.00;16.30;99.90;;;;;;4989843;28;11383;-67
2022/05/15 11:17:09;;;;;;;;;0.00;0.00;16.30;99.90;;;;;;4972904;28;11350;-67
2022/05/15 11:19:44;;;;;;;;;0.00;0.00;16.40;99.90;;;;;;4998974;28;10623;-65
2022/05/15 11:22:31;;;;;;;;;0.25;0.25;16.30;99.90;;;;;;4994924;28;10549;-65
2022/05/15 11:25:13;;;;;;;;;0.00;0.00;16.30;99.90;;;;;;5001437;28;10727;-65
2022/05/15 11:27:51;;;;;;;;;0.50;0.50;16.30;99.90;;;;;;4987681;28;10715;-63
2022/05/15 11:30:30;;;;;;;;;0.00;0.00;16.30;99.90;;;;;;4998377;28;10593;-65
2022/05/15 11:33:10;;;;;;;;;0.00;0.00;16.30;99.90;;;;;;4995730;28;10309;-64
2022/05/15 11:36:01;;;;;;;;;0.75;0.75;16.30;99.90;;;;;;5002197;28;11275;-64
2022/05/15 11:38:48;;;;;;;;;0.00;0.00;16.30;99.90;;;;;;4993805;28;11903;-65
2022/05/15 11:42:10;;;;;;;;;0.00;0.00;16.30;99.90;;;;;;4979894;28;11034;-65
2022/05/15 11:44:44;;;;;;;;;0.00;0.00;16.20;99.90;;;;;;5000109;28;10293;-64
2022/05/15 11:47:34;;;;;;;;;0.00;0.00;16.20;99.90;;;;;;4976841;28;10338;-65
2022/05/15 11:50:30;;;;;;;;;1.25;1.00;16.20;99.90;;;;;;5000914;28;10480;-64
2022/05/15 11:53:09;;;;;;;;;1.00;1.00;16.30;99.90;;;;;;4984287;28;10550;-64
2022/05/15 11:55:45;;;;;;;;;2.00;0.00;16.20;99.90;;;;;;4977483;28;10804;-64
2022/05/15 11:58:37;;;;;;;;;0.25;0.25;16.20;99.90;;;;;;4997280;28;10506;-64
2022/05/15 12:01:32;;;;;;;;;0.25;0.25;16.20;99.90;;;;;;4998652;28;10742;-64
2022/05/15 12:04:19;;;;;;;;;0.00;0.00;16.20;99.90;;;;;;4994834;28;10593;-65
2022/05/15 12:06:59;;;;;;;;;0.00;0.00;16.20;99.90;;;;;;4982836;28;10685;-64
2022/05/15 12:09:33;;;;;;;;;0.00;0.00;16.10;99.90;;;;;;4996106;28;10589;-65
2022/05/15 12:12:24;;;;;;;;;0.00;0.00;16.10;99.90;;;;;;4990181;28;10658;-64
2022/05/15 12:15:19;;;;;;;;;0.00;0.00;16.10;99.90;;;;;;4991198;28;10585;-65
2022/05/15 12:18:10;;;;;;;;;0.00;0.00;16.10;99.90;;;;;;4998651;28;11309;-65
2022/05/15 12:20:49;;;;;;;;;0.00;0.00;16.10;99.90;;;;;;4994457;28;10695;-65
2022/05/15 12:23:24;;;;;;;;;0.50;0.50;16.10;99.90;;;;;;4979211;28;10653;-64
2022/05/15 12:26:17;;;;;;;;;0.00;0.00;16.10;99.90;;;;;;4983646;28;10659;-63
2022/05/15 12:29:33;;;;;;;;;0.00;0.00;16.10;99.90;;;;;;4966025;28;10610;-64
2022/05/15 12:32:19;;;;;;;;;2.00;0.00;16.00;99.90;;;;;;4974667;28;10511;-65
2022/05/15 12:34:51;;;;;;;;;0.00;0.00;16.00;99.90;;;;;;4999753;28;10575;-64
2022/05/15 12:37:33;;;;;;;;;0.00;0.00;16.00;99.90;;;;;;4992210;28;10655;-64
2022/05/15 12:40:06;;;;;;;;;0.50;0.50;16.00;99.90;;;;;;4971273;28;10619;-63
2022/05/15 12:42:40;;;;;;;;;0.75;0.75;16.00;99.90;;;;;;4988217;28;10932;-64
2022/05/15 12:45:19;;;;;;;;;0.00;0.00;16.00;99.90;;;;;;4994428;28;10613;-64
2022/05/15 12:48:12;;;;;;;;;0.00;0.00;16.00;99.90;;;;;;4991469;28;10639;-65
2022/05/15 12:51:06;;;;;;;;;1.50;0.00;16.00;99.90;;;;;;4993715;28;10567;-64
2022/05/15 12:53:48;;;;;;;;;0.00;0.00;15.90;99.90;;;;;;4991085;28;10693;-63
2022/05/15 12:56:29;;;;;;;;;0.75;0.75;15.90;99.90;;;;;;4996736;28;10739;-63
2022/05/15 12:59:21;;;;;;;;;1.00;1.00;16.00;99.90;;;;;;4992262;28;10761;-64
2022/05/15 13:01:53;;;;;;;;;1.00;1.00;15.90;99.90;;;;;;4982955;28;10678;-64
2022/05/15 13:04:29;;;;;;;;;1.00;1.00;15.90;99.90;;;;;;4997922;28;10598;-64
2022/05/15 13:07:01;;;;;;;;;1.25;1.25;15.90;99.90;;;;;;4977061;28;10617;-64
2022/05/15 13:09:31;;;;;;;;;0.75;0.75;15.90;99.90;;;;;;4995374;28;10713;-64
2022/05/15 13:12:04;;;;;;;;;0.00;0.00;15.90;99.90;;;;;;4994315;28;10638;-64
2022/05/15 13:14:40;;;;;;;;;0.00;0.00;15.90;99.90;;;;;;5005400;28;11617;-64
2022/05/15 13:17:12;;;;;;;;;0.00;0.00;15.90;99.90;;;;;;4996981;28;10827;-64
2022/05/15 13:19:55;;;;;;;;;0.00;0.00;15.80;99.90;;;;;;4997249;28;10617;-65
2022/05/15 13:22:31;;;;;;;;;0.00;0.00;15.80;99.90;;;;;;4965387;28;10823;-64
2022/05/15 13:25:16;;;;;;;;;0.25;0.00;15.80;99.90;;;;;;4979258;28;10826;-65
2022/05/15 13:27:47;;;;;;;;;0.00;0.00;15.80;99.90;;;;;;4977729;28;10629;-64
2022/05/15 13:30:25;;;;;;;;;0.00;0.00;15.80;99.90;;;;;;4989399;28;10643;-64
2022/05/15 13:33:06;;;;;;;;;0.00;0.00;15.70;99.90;;;;;;4992061;28;10799;-65
2022/05/15 13:35:46;;;;;;;;;0.00;0.00;15.80;99.90;;;;;;5002704;28;10449;-64
2022/05/15 13:38:26;;;;;;;;;0.00;0.00;15.70;99.90;;;;;;4997252;28;10583;-65
2022/05/15 13:44:10;;;;;;;;;0.00;0.00;15.70;99.90;;;;;;4991831;28;10638;-65
2022/05/15 13:46:59;;;;;;;;;0.00;0.00;15.60;99.90;;;;;;4989671;28;10536;-65
2022/05/15 13:49:47;;;;;;;;;0.00;0.00;15.60;99.90;;;;;;4995557;28;10699;-64
2022/05/15 13:52:25;;;;;;;;;0.00;0.00;15.60;99.90;;;;;;5003997;28;10729;-64
2022/05/15 13:54:57;;;;;;;;;0.00;0.00;15.50;99.90;;;;;;4989578;28;10468;-65
2022/05/15 13:57:29;;;;;;;;;0.00;0.00;15.60;99.90;;;;;;4993852;28;10680;-64
2022/05/15 14:00:11;;;;;;;;;0.00;0.00;15.60;99.90;;;;;;4997120;28;10670;-65
2022/05/15 14:02:54;;;;;;;;;0.00;0.00;15.60;99.90;;;;;;4970254;28;10506;-64